TAP1921 LPPR-LPPT
Flight info
| Callsign | TAP1921 |
|---|---|
| Flight time | 0h 43m |
| Altitude | 33000 |
| Route | MANIK DCT ABRIL DCT XAMAX |
| Aircraft | A320/M-SDE3FGHIRWY/LB1 |
Departure
| Time | 2026-05-08 00:27 |
|---|---|
| Airport | Francisco de Sá Carneiro Airport (LPPR) |
Arrival
| Time | 2026-05-08 01:11 |
|---|---|
| Airport | Lisbon Humberto Delgado Airport (LPPT) |
| Time | Latitude | Longitude | Altitude | Speed | Heading |
|---|---|---|---|---|---|
| 2026-05-08 00:09 | 41.24125 | -8.67657 | 235 ft | 0 kts | 259° |
| 2026-05-08 00:18 | 41.24128 | -8.67637 | 238 ft | 4 kts | 258° |
| 2026-05-08 00:19 | 41.24134 | -8.67602 | 239 ft | 4 kts | 251° |
| 2026-05-08 00:19 | 41.24145 | -8.67572 | 237 ft | 4 kts | 220° |
| 2026-05-08 00:19 | 41.24159 | -8.67563 | 238 ft | 0 kts | 169° |
| 2026-05-08 00:22 | 41.24135 | -8.67556 | 239 ft | 8 kts | 168° |
| 2026-05-08 00:22 | 41.24084 | -8.67542 | 235 ft | 7 kts | 168° |
| 2026-05-08 00:22 | 41.24041 | -8.67531 | 235 ft | 7 kts | 169° |
| 2026-05-08 00:23 | 41.23980 | -8.67515 | 235 ft | 8 kts | 169° |
| 2026-05-08 00:23 | 41.23926 | -8.67501 | 235 ft | 9 kts | 168° |
| 2026-05-08 00:23 | 41.23846 | -8.67480 | 235 ft | 12 kts | 169° |
| 2026-05-08 00:23 | 41.23768 | -8.67459 | 237 ft | 11 kts | 169° |
| 2026-05-08 00:24 | 41.23700 | -8.67442 | 235 ft | 9 kts | 169° |
| 2026-05-08 00:24 | 41.23617 | -8.67420 | 238 ft | 16 kts | 169° |
| 2026-05-08 00:24 | 41.23517 | -8.67394 | 235 ft | 14 kts | 169° |
| 2026-05-08 00:24 | 41.23428 | -8.67370 | 235 ft | 12 kts | 168° |
| 2026-05-08 00:25 | 41.23354 | -8.67361 | 235 ft | 9 kts | 205° |
| 2026-05-08 00:25 | 41.23332 | -8.67431 | 235 ft | 8 kts | 262° |
| 2026-05-08 00:25 | 41.23323 | -8.67495 | 235 ft | 6 kts | 258° |
| 2026-05-08 00:25 | 41.23316 | -8.67546 | 237 ft | 5 kts | 258° |
| 2026-05-08 00:26 | 41.23308 | -8.67598 | 235 ft | 9 kts | 258° |
| 2026-05-08 00:26 | 41.23302 | -8.67707 | 241 ft | 13 kts | 291° |
| 2026-05-08 00:26 | 41.23383 | -8.67749 | 237 ft | 18 kts | 348° |
| 2026-05-08 00:26 | 41.23746 | -8.67844 | 234 ft | 88 kts | 349° |
| 2026-05-08 00:27 | 41.24528 | -8.68049 | 238 ft | 141 kts | 349° |
| 2026-05-08 00:27 | 41.25624 | -8.68340 | 420 ft | 169 kts | 349° |
| 2026-05-08 00:27 | 41.26736 | -8.68642 | 1204 ft | 162 kts | 348° |
| 2026-05-08 00:27 | 41.27846 | -8.68952 | 1851 ft | 167 kts | 348° |
| 2026-05-08 00:28 | 41.29037 | -8.69270 | 2254 ft | 183 kts | 348° |
| 2026-05-08 00:28 | 41.30359 | -8.69607 | 2616 ft | 201 kts | 349° |
| 2026-05-08 00:28 | 41.31784 | -8.69957 | 3041 ft | 216 kts | 349° |
| 2026-05-08 00:28 | 41.33334 | -8.70354 | 3419 ft | 239 kts | 348° |
| 2026-05-08 00:29 | 41.35036 | -8.70826 | 3885 ft | 260 kts | 347° |
| 2026-05-08 00:29 | 41.36865 | -8.71321 | 4509 ft | 275 kts | 348° |
| 2026-05-08 00:29 | 41.38743 | -8.71902 | 5347 ft | 280 kts | 338° |
| 2026-05-08 00:29 | 41.40358 | -8.73310 | 6204 ft | 280 kts | 310° |
| 2026-05-08 00:30 | 41.41369 | -8.75510 | 6943 ft | 280 kts | 284° |
| 2026-05-08 00:30 | 41.41608 | -8.78052 | 7718 ft | 276 kts | 259° |
| 2026-05-08 00:30 | 41.41251 | -8.80566 | 8538 ft | 276 kts | 250° |
| 2026-05-08 00:30 | 41.40427 | -8.82818 | 9344 ft | 269 kts | 224° |
| 2026-05-08 00:31 | 41.38977 | -8.84317 | 10148 ft | 263 kts | 201° |
| 2026-05-08 00:31 | 41.37159 | -8.84865 | 10512 ft | 279 kts | 178° |
| 2026-05-08 00:31 | 41.35191 | -8.84456 | 10722 ft | 302 kts | 169° |
| 2026-05-08 00:31 | 41.33053 | -8.83875 | 10984 ft | 321 kts | 168° |
| 2026-05-08 00:32 | 41.30837 | -8.83261 | 11569 ft | 328 kts | 168° |
| 2026-05-08 00:32 | 41.28587 | -8.82642 | 12259 ft | 332 kts | 169° |
| 2026-05-08 00:32 | 41.26304 | -8.82026 | 12958 ft | 336 kts | 169° |
| 2026-05-08 00:32 | 41.23997 | -8.81412 | 13652 ft | 340 kts | 169° |
| 2026-05-08 00:33 | 41.21659 | -8.80794 | 14262 ft | 344 kts | 169° |
| 2026-05-08 00:33 | 41.19303 | -8.80174 | 14884 ft | 347 kts | 169° |
| 2026-05-08 00:33 | 41.16925 | -8.79549 | 15495 ft | 350 kts | 169° |
| 2026-05-08 00:33 | 41.14528 | -8.78917 | 16096 ft | 353 kts | 169° |
| 2026-05-08 00:34 | 41.12111 | -8.78277 | 16692 ft | 356 kts | 169° |
| 2026-05-08 00:34 | 41.09674 | -8.77635 | 17274 ft | 359 kts | 170° |
| 2026-05-08 00:34 | 41.07212 | -8.76987 | 17843 ft | 362 kts | 170° |
| 2026-05-08 00:34 | 41.04757 | -8.76182 | 18372 ft | 366 kts | 164° |
| 2026-05-08 00:35 | 41.02348 | -8.75176 | 18831 ft | 369 kts | 164° |
| 2026-05-08 00:35 | 40.99884 | -8.74155 | 19298 ft | 372 kts | 165° |
| 2026-05-08 00:35 | 40.97397 | -8.73132 | 19757 ft | 376 kts | 165° |
| 2026-05-08 00:35 | 40.94886 | -8.72107 | 20197 ft | 379 kts | 165° |
| 2026-05-08 00:36 | 40.92354 | -8.71071 | 20603 ft | 383 kts | 165° |
| 2026-05-08 00:36 | 40.89800 | -8.70025 | 21028 ft | 387 kts | 165° |
| 2026-05-08 00:36 | 40.87219 | -8.68967 | 21455 ft | 390 kts | 165° |
| 2026-05-08 00:36 | 40.84616 | -8.67903 | 21883 ft | 393 kts | 165° |
| 2026-05-08 00:37 | 40.81993 | -8.66835 | 22322 ft | 396 kts | 165° |
| 2026-05-08 00:37 | 40.79350 | -8.65758 | 22749 ft | 399 kts | 165° |
| 2026-05-08 00:37 | 40.76690 | -8.64675 | 23164 ft | 402 kts | 165° |
| 2026-05-08 00:38 | 40.71747 | -8.62659 | 23836 ft | 407 kts | 165° |
| 2026-05-08 00:38 | 40.69004 | -8.61680 | 24181 ft | 408 kts | 171° |
| 2026-05-08 00:38 | 40.66184 | -8.61237 | 24531 ft | 408 kts | 176° |
| 2026-05-08 00:38 | 40.63739 | -8.60948 | 24837 ft | 410 kts | 176° |
| 2026-05-08 00:39 | 40.62919 | -8.60850 | 24941 ft | 410 kts | 176° |
| 2026-05-08 00:39 | 40.60110 | -8.60509 | 25291 ft | 412 kts | 176° |
| 2026-05-08 00:40 | 40.57244 | -8.60159 | 25653 ft | 413 kts | 176° |
| 2026-05-08 00:40 | 40.54378 | -8.59810 | 26020 ft | 415 kts | 176° |
| 2026-05-08 00:40 | 40.51499 | -8.59458 | 26365 ft | 416 kts | 176° |
| 2026-05-08 00:40 | 40.48610 | -8.59105 | 26699 ft | 418 kts | 176° |
| 2026-05-08 00:41 | 40.45705 | -8.58756 | 26894 ft | 419 kts | 176° |
| 2026-05-08 00:41 | 40.42797 | -8.58410 | 26935 ft | 420 kts | 176° |
| 2026-05-08 00:41 | 40.39883 | -8.58064 | 26933 ft | 420 kts | 176° |
| 2026-05-08 00:41 | 40.36975 | -8.57718 | 26933 ft | 420 kts | 176° |
| 2026-05-08 00:42 | 40.34061 | -8.57367 | 26930 ft | 420 kts | 176° |
| 2026-05-08 00:42 | 40.31157 | -8.57015 | 26929 ft | 420 kts | 176° |
| 2026-05-08 00:42 | 40.28241 | -8.56661 | 26745 ft | 419 kts | 176° |
| 2026-05-08 00:42 | 40.25340 | -8.56307 | 26899 ft | 420 kts | 176° |
| 2026-05-08 00:43 | 40.22429 | -8.55952 | 26935 ft | 420 kts | 176° |
| 2026-05-08 00:43 | 40.19520 | -8.55596 | 26935 ft | 420 kts | 176° |
| 2026-05-08 00:43 | 40.16614 | -8.55242 | 26933 ft | 420 kts | 176° |
| 2026-05-08 00:43 | 40.13704 | -8.54892 | 26935 ft | 420 kts | 176° |
| 2026-05-08 00:44 | 40.10787 | -8.54543 | 26932 ft | 420 kts | 176° |
| 2026-05-08 00:44 | 40.07884 | -8.54195 | 26933 ft | 420 kts | 176° |
| 2026-05-08 00:44 | 40.04969 | -8.53845 | 26935 ft | 420 kts | 176° |
| 2026-05-08 00:44 | 40.02058 | -8.53501 | 26934 ft | 420 kts | 176° |
| 2026-05-08 00:45 | 39.99185 | -8.53214 | 26933 ft | 420 kts | 177° |
| 2026-05-08 00:45 | 39.96268 | -8.52972 | 26931 ft | 419 kts | 178° |
| 2026-05-08 00:45 | 39.93358 | -8.52755 | 26934 ft | 419 kts | 178° |
| 2026-05-08 00:45 | 39.90445 | -8.52543 | 26938 ft | 419 kts | 178° |
| 2026-05-08 00:46 | 39.87537 | -8.52324 | 26942 ft | 418 kts | 178° |
| 2026-05-08 00:46 | 39.84634 | -8.52093 | 26943 ft | 418 kts | 178° |
| 2026-05-08 00:46 | 39.81732 | -8.51855 | 26939 ft | 418 kts | 178° |
| 2026-05-08 00:46 | 39.78836 | -8.51789 | 26932 ft | 416 kts | 185° |
| 2026-05-08 00:47 | 39.75977 | -8.52356 | 26930 ft | 415 kts | 194° |
| 2026-05-08 00:47 | 39.73247 | -8.53575 | 26926 ft | 416 kts | 204° |
| 2026-05-08 00:47 | 39.70710 | -8.55387 | 26924 ft | 416 kts | 210° |
| 2026-05-08 00:47 | 39.68240 | -8.57347 | 26923 ft | 416 kts | 210° |
| 2026-05-08 00:48 | 39.65763 | -8.59304 | 26923 ft | 416 kts | 210° |
| 2026-05-08 00:48 | 39.63284 | -8.61254 | 26923 ft | 416 kts | 210° |
| 2026-05-08 00:48 | 39.60803 | -8.63201 | 26925 ft | 416 kts | 209° |
| 2026-05-08 00:48 | 39.58324 | -8.65142 | 26926 ft | 416 kts | 210° |
| 2026-05-08 00:49 | 39.55847 | -8.67082 | 26924 ft | 416 kts | 209° |
| 2026-05-08 00:49 | 39.53369 | -8.69025 | 26926 ft | 416 kts | 209° |
| 2026-05-08 00:49 | 39.50894 | -8.70963 | 26929 ft | 416 kts | 209° |
| 2026-05-08 00:49 | 39.48415 | -8.72897 | 26954 ft | 416 kts | 209° |
| 2026-05-08 00:50 | 39.45967 | -8.74804 | 26963 ft | 416 kts | 208° |
| 2026-05-08 00:50 | 39.43493 | -8.76735 | 26961 ft | 415 kts | 208° |
| 2026-05-08 00:50 | 39.41047 | -8.78716 | 26955 ft | 416 kts | 213° |
| 2026-05-08 00:50 | 39.38828 | -8.81135 | 26953 ft | 419 kts | 222° |
| 2026-05-08 00:51 | 39.36873 | -8.83948 | 26949 ft | 421 kts | 225° |
| 2026-05-08 00:51 | 39.34955 | -8.86782 | 26803 ft | 414 kts | 225° |
| 2026-05-08 00:51 | 39.33063 | -8.89568 | 26550 ft | 400 kts | 225° |
| 2026-05-08 00:51 | 39.31276 | -8.92194 | 26294 ft | 388 kts | 225° |
| 2026-05-08 00:52 | 39.29520 | -8.94766 | 26133 ft | 374 kts | 224° |
| 2026-05-08 00:52 | 39.27830 | -8.97242 | 26009 ft | 360 kts | 224° |
| 2026-05-08 00:52 | 39.26202 | -8.99623 | 25828 ft | 349 kts | 224° |
| 2026-05-08 00:52 | 39.24611 | -9.01946 | 25475 ft | 343 kts | 224° |
| 2026-05-08 00:53 | 39.23037 | -9.04241 | 25047 ft | 340 kts | 224° |
| 2026-05-08 00:53 | 39.21477 | -9.06518 | 24635 ft | 337 kts | 224° |
| 2026-05-08 00:53 | 39.19932 | -9.08773 | 24219 ft | 334 kts | 224° |
| 2026-05-08 00:53 | 39.18398 | -9.11011 | 23791 ft | 333 kts | 224° |
| 2026-05-08 00:54 | 39.16866 | -9.13245 | 23328 ft | 332 kts | 224° |
| 2026-05-08 00:54 | 39.15344 | -9.15465 | 22845 ft | 329 kts | 224° |
| 2026-05-08 00:54 | 39.14341 | -9.16923 | 22537 ft | 328 kts | 224° |
| 2026-05-08 00:54 | 39.12833 | -9.19112 | 22104 ft | 325 kts | 224° |
| 2026-05-08 00:55 | 39.11340 | -9.21281 | 21680 ft | 323 kts | 224° |
| 2026-05-08 00:55 | 39.09854 | -9.23437 | 21273 ft | 320 kts | 224° |
| 2026-05-08 00:55 | 39.08381 | -9.25575 | 20867 ft | 318 kts | 224° |
| 2026-05-08 00:55 | 39.06920 | -9.27693 | 20463 ft | 315 kts | 224° |
| 2026-05-08 00:56 | 39.05466 | -9.29798 | 20071 ft | 313 kts | 224° |
| 2026-05-08 00:56 | 39.04024 | -9.31886 | 19666 ft | 311 kts | 224° |
| 2026-05-08 00:56 | 39.02595 | -9.33956 | 19292 ft | 309 kts | 224° |
| 2026-05-08 00:56 | 39.01171 | -9.36018 | 18913 ft | 307 kts | 224° |
| 2026-05-08 00:57 | 38.99756 | -9.38067 | 18551 ft | 305 kts | 224° |
| 2026-05-08 00:57 | 38.98351 | -9.40099 | 18176 ft | 303 kts | 224° |
| 2026-05-08 00:57 | 38.96953 | -9.42114 | 17762 ft | 301 kts | 224° |
| 2026-05-08 00:57 | 38.95565 | -9.44116 | 17369 ft | 299 kts | 224° |
| 2026-05-08 00:58 | 38.94189 | -9.46103 | 16995 ft | 297 kts | 224° |
| 2026-05-08 00:58 | 38.92824 | -9.48074 | 16674 ft | 294 kts | 224° |
| 2026-05-08 00:58 | 38.91469 | -9.50026 | 16347 ft | 290 kts | 224° |
| 2026-05-08 00:58 | 38.90146 | -9.51929 | 16218 ft | 281 kts | 224° |
| 2026-05-08 00:59 | 38.88749 | -9.53587 | 16084 ft | 268 kts | 210° |
| 2026-05-08 00:59 | 38.87114 | -9.54564 | 15906 ft | 259 kts | 194° |
| 2026-05-08 00:59 | 38.85348 | -9.54849 | 15706 ft | 254 kts | 182° |
| 2026-05-08 00:59 | 38.83591 | -9.54875 | 15462 ft | 251 kts | 182° |
| 2026-05-08 01:00 | 38.81851 | -9.54909 | 15174 ft | 250 kts | 183° |
| 2026-05-08 01:00 | 38.80107 | -9.54947 | 14705 ft | 250 kts | 183° |
| 2026-05-08 01:00 | 38.78370 | -9.54985 | 14177 ft | 249 kts | 183° |
| 2026-05-08 01:00 | 38.76647 | -9.55022 | 13672 ft | 246 kts | 183° |
| 2026-05-08 01:01 | 38.74942 | -9.55059 | 13091 ft | 245 kts | 183° |
| 2026-05-08 01:01 | 38.73236 | -9.55099 | 12468 ft | 245 kts | 182° |
| 2026-05-08 01:01 | 38.71540 | -9.55137 | 11963 ft | 242 kts | 182° |
| 2026-05-08 01:01 | 38.69863 | -9.55174 | 11439 ft | 240 kts | 181° |
| 2026-05-08 01:02 | 38.68194 | -9.55210 | 10897 ft | 239 kts | 181° |
| 2026-05-08 01:02 | 38.66531 | -9.55245 | 10346 ft | 239 kts | 181° |
| 2026-05-08 01:02 | 38.64913 | -9.55058 | 10059 ft | 228 kts | 164° |
| 2026-05-08 01:02 | 38.63533 | -9.54106 | 9601 ft | 228 kts | 140° |
| 2026-05-08 01:03 | 38.62612 | -9.52434 | 9040 ft | 236 kts | 114° |
| 2026-05-08 01:03 | 38.62279 | -9.50353 | 8582 ft | 242 kts | 102° |
| 2026-05-08 01:03 | 38.62041 | -9.48208 | 8170 ft | 244 kts | 101° |
| 2026-05-08 01:03 | 38.61805 | -9.46078 | 7787 ft | 245 kts | 101° |
| 2026-05-08 01:04 | 38.61563 | -9.43915 | 7403 ft | 246 kts | 101° |
| 2026-05-08 01:04 | 38.61319 | -9.41747 | 7045 ft | 247 kts | 101° |
| 2026-05-08 01:04 | 38.61073 | -9.39570 | 6694 ft | 247 kts | 100° |
| 2026-05-08 01:04 | 38.60829 | -9.37427 | 6433 ft | 240 kts | 100° |
| 2026-05-08 01:05 | 38.60586 | -9.35322 | 5988 ft | 239 kts | 100° |
| 2026-05-08 01:05 | 38.60342 | -9.33228 | 5548 ft | 237 kts | 99° |
| 2026-05-08 01:05 | 38.60101 | -9.31149 | 5108 ft | 236 kts | 99° |
| 2026-05-08 01:05 | 38.59861 | -9.29079 | 4675 ft | 234 kts | 99° |
| 2026-05-08 01:06 | 38.59622 | -9.27026 | 4233 ft | 233 kts | 99° |
| 2026-05-08 01:06 | 38.59565 | -9.24983 | 4016 ft | 230 kts | 75° |
| 2026-05-08 01:06 | 38.60355 | -9.23259 | 3947 ft | 224 kts | 39° |
| 2026-05-08 01:06 | 38.61728 | -9.22314 | 3567 ft | 227 kts | 21° |
| 2026-05-08 01:07 | 38.63193 | -9.21542 | 3214 ft | 226 kts | 21° |
| 2026-05-08 01:07 | 38.64604 | -9.20806 | 2933 ft | 218 kts | 21° |
| 2026-05-08 01:07 | 38.65984 | -9.20078 | 2633 ft | 209 kts | 21° |
| 2026-05-08 01:07 | 38.67279 | -9.19388 | 2373 ft | 193 kts | 21° |
| 2026-05-08 01:08 | 38.68454 | -9.18761 | 2130 ft | 173 kts | 21° |
| 2026-05-08 01:08 | 38.69506 | -9.18200 | 1885 ft | 156 kts | 21° |
| 2026-05-08 01:08 | 38.70477 | -9.17682 | 1684 ft | 148 kts | 21° |
| 2026-05-08 01:08 | 38.71430 | -9.17174 | 1474 ft | 148 kts | 21° |
| 2026-05-08 01:09 | 38.72380 | -9.16667 | 1274 ft | 147 kts | 21° |
| 2026-05-08 01:09 | 38.73327 | -9.16162 | 1076 ft | 148 kts | 21° |
| 2026-05-08 01:09 | 38.74274 | -9.15656 | 880 ft | 148 kts | 22° |
| 2026-05-08 01:09 | 38.75225 | -9.15148 | 684 ft | 148 kts | 21° |
| 2026-05-08 01:10 | 38.76175 | -9.14637 | 473 ft | 149 kts | 22° |
| 2026-05-08 01:10 | 38.77114 | -9.14137 | 358 ft | 137 kts | 22° |
| 2026-05-08 01:10 | 38.77845 | -9.13748 | 363 ft | 91 kts | 23° |
| 2026-05-08 01:10 | 38.78290 | -9.13508 | 368 ft | 54 kts | 22° |
| 2026-05-08 01:11 | 38.78513 | -9.13386 | 365 ft | 17 kts | 38° |
| 2026-05-08 01:11 | 38.78516 | -9.13258 | 362 ft | 16 kts | 136° |
| 2026-05-08 01:11 | 38.78408 | -9.13227 | 360 ft | 17 kts | 190° |
| 2026-05-08 01:11 | 38.78293 | -9.13279 | 362 ft | 18 kts | 202° |
| 2026-05-08 01:12 | 38.78168 | -9.13344 | 362 ft | 20 kts | 202° |
| 2026-05-08 01:12 | 38.78032 | -9.13411 | 360 ft | 22 kts | 191° |
| 2026-05-08 01:12 | 38.77871 | -9.13375 | 349 ft | 23 kts | 167° |
| 2026-05-08 01:12 | 38.77772 | -9.13349 | 351 ft | 8 kts | 169° |
| 2026-05-08 01:13 | 38.77698 | -9.13331 | 337 ft | 13 kts | 169° |
| 2026-05-08 01:13 | 38.77612 | -9.13311 | 338 ft | 12 kts | 174° |
| 2026-05-08 01:13 | 38.77536 | -9.13307 | 335 ft | 10 kts | 176° |
| 2026-05-08 01:13 | 38.77472 | -9.13290 | 336 ft | 9 kts | 166° |
| 2026-05-08 01:14 | 38.77418 | -9.13276 | 338 ft | 7 kts | 169° |
| 2026-05-08 01:14 | 38.77375 | -9.13266 | 333 ft | 6 kts | 171° |
| 2026-05-08 01:14 | 38.77337 | -9.13258 | 337 ft | 7 kts | 171° |
| 2026-05-08 01:14 | 38.77273 | -9.13246 | 337 ft | 10 kts | 170° |
| 2026-05-08 01:15 | 38.77212 | -9.13228 | 336 ft | 9 kts | 167° |
| 2026-05-08 01:15 | 38.77131 | -9.13205 | 337 ft | 12 kts | 167° |
| 2026-05-08 01:15 | 38.77056 | -9.13186 | 335 ft | 10 kts | 169° |
| 2026-05-08 01:15 | 38.76992 | -9.13169 | 338 ft | 9 kts | 168° |
| 2026-05-08 01:16 | 38.76898 | -9.13143 | 339 ft | 18 kts | 168° |
| 2026-05-08 01:16 | 38.76772 | -9.13110 | 338 ft | 18 kts | 169° |
| 2026-05-08 01:16 | 38.76704 | -9.13067 | 338 ft | 8 kts | 88° |
| 2026-05-08 01:16 | 38.76714 | -9.13009 | 337 ft | 2 kts | 78° |
| 2026-05-08 01:17 | 38.76715 | -9.13003 | 337 ft | 0 kts | 78° |